sensor_id;sensor_type;location;lat;lon;timestamp;P1;durP1;ratioP1;P2;durP2;ratioP2
27402;SDS011;14862;49.494;8.530;2023-04-15T00:01:52;8.77;;;4.18;;
27402;SDS011;14862;49.494;8.530;2023-04-15T00:04:17;16.23;;;4.97;;
27402;SDS011;14862;49.494;8.530;2023-04-15T00:06:48;5.90;;;3.57;;
27402;SDS011;14862;49.494;8.530;2023-04-15T00:09:13;12.70;;;4.65;;
27402;SDS011;14862;49.494;8.530;2023-04-15T00:11:39;13.30;;;5.30;;
27402;SDS011;14862;49.494;8.530;2023-04-15T00:14:04;19.38;;;6.45;;
27402;SDS011;14862;49.494;8.530;2023-04-15T00:16:30;16.25;;;5.97;;
27402;SDS011;14862;49.494;8.530;2023-04-15T00:18:55;23.20;;;7.50;;
27402;SDS011;14862;49.494;8.530;2023-04-15T00:21:20;27.35;;;11.30;;
27402;SDS011;14862;49.494;8.530;2023-04-15T00:23:46;24.73;;;8.30;;
27402;SDS011;14862;49.494;8.530;2023-04-15T00:26:16;19.75;;;8.07;;
27402;SDS011;14862;49.494;8.530;2023-04-15T00:28:42;23.02;;;7.00;;
27402;SDS011;14862;49.494;8.530;2023-04-15T00:31:08;13.85;;;5.93;;
27402;SDS011;14862;49.494;8.530;2023-04-15T00:33:33;16.23;;;11.60;;
27402;SDS011;14862;49.494;8.530;2023-04-15T00:36:00;13.82;;;7.75;;
27402;SDS011;14862;49.494;8.530;2023-04-15T00:38:26;15.70;;;7.53;;
27402;SDS011;14862;49.494;8.530;2023-04-15T00:40:52;14.55;;;7.60;;
27402;SDS011;14862;49.494;8.530;2023-04-15T00:43:17;11.48;;;6.50;;
27402;SDS011;14862;49.494;8.530;2023-04-15T00:45:42;12.38;;;5.68;;
27402;SDS011;14862;49.494;8.530;2023-04-15T00:48:08;10.77;;;4.47;;
27402;SDS011;14862;49.494;8.530;2023-04-15T00:50:33;11.23;;;4.35;;
27402;SDS011;14862;49.494;8.530;2023-04-15T00:52:58;8.35;;;5.05;;
27402;SDS011;14862;49.494;8.530;2023-04-15T00:55:24;9.38;;;5.95;;
27402;SDS011;14862;49.494;8.530;2023-04-15T00:57:49;10.57;;;6.25;;
27402;SDS011;14862;49.494;8.530;2023-04-15T01:00:14;9.10;;;5.38;;
27402;SDS011;14862;49.494;8.530;2023-04-15T01:02:40;11.20;;;4.95;;
27402;SDS011;14862;49.494;8.530;2023-04-15T01:05:06;10.63;;;5.07;;
27402;SDS011;14862;49.494;8.530;2023-04-15T01:07:31;10.70;;;5.45;;
27402;SDS011;14862;49.494;8.530;2023-04-15T01:09:56;8.45;;;5.45;;
27402;SDS011;14862;49.494;8.530;2023-04-15T01:12:22;12.30;;;6.53;;
27402;SDS011;14862;49.494;8.530;2023-04-15T01:14:48;8.07;;;4.80;;
27402;SDS011;14862;49.494;8.530;2023-04-15T01:17:13;8.32;;;5.07;;
27402;SDS011;14862;49.494;8.530;2023-04-15T01:19:39;8.93;;;5.18;;
27402;SDS011;14862;49.494;8.530;2023-04-15T01:22:04;9.27;;;4.80;;
27402;SDS011;14862;49.494;8.530;2023-04-15T01:24:30;10.60;;;5.53;;
27402;SDS011;14862;49.494;8.530;2023-04-15T01:26:56;10.00;;;5.90;;
27402;SDS011;14862;49.494;8.530;2023-04-15T01:29:21;14.38;;;6.28;;
27402;SDS011;14862;49.494;8.530;2023-04-15T01:31:54;12.32;;;6.22;;
27402;SDS011;14862;49.494;8.530;2023-04-15T01:34:20;13.90;;;6.28;;
27402;SDS011;14862;49.494;8.530;2023-04-15T01:36:45;9.23;;;5.60;;
27402;SDS011;14862;49.494;8.530;2023-04-15T01:39:10;11.95;;;6.18;;
27402;SDS011;14862;49.494;8.530;2023-04-15T01:41:36;8.38;;;5.57;;
27402;SDS011;14862;49.494;8.530;2023-04-15T01:44:01;11.05;;;5.68;;
27402;SDS011;14862;49.494;8.530;2023-04-15T01:46:27;9.20;;;5.60;;
27402;SDS011;14862;49.494;8.530;2023-04-15T01:48:52;9.27;;;5.00;;
27402;SDS011;14862;49.494;8.530;2023-04-15T01:51:17;10.40;;;5.55;;
27402;SDS011;14862;49.494;8.530;2023-04-15T01:53:42;8.98;;;5.07;;
27402;SDS011;14862;49.494;8.530;2023-04-15T01:56:07;12.40;;;5.47;;
27402;SDS011;14862;49.494;8.530;2023-04-15T01:58:33;12.32;;;4.88;;
27402;SDS011;14862;49.494;8.530;2023-04-15T02:00:58;9.82;;;5.22;;
27402;SDS011;14862;49.494;8.530;2023-04-15T02:03:23;13.57;;;6.28;;
27402;SDS011;14862;49.494;8.530;2023-04-15T02:05:49;13.52;;;6.10;;
27402;SDS011;14862;49.494;8.530;2023-04-15T02:08:15;15.55;;;6.25;;
27402;SDS011;14862;49.494;8.530;2023-04-15T02:10:40;15.13;;;6.97;;
27402;SDS011;14862;49.494;8.530;2023-04-15T02:13:05;15.95;;;7.07;;
27402;SDS011;14862;49.494;8.530;2023-04-15T02:15:31;10.18;;;7.35;;
27402;SDS011;14862;49.494;8.530;2023-04-15T02:17:57;9.88;;;5.82;;
27402;SDS011;14862;49.494;8.530;2023-04-15T02:20:24;8.32;;;5.03;;
27402;SDS011;14862;49.494;8.530;2023-04-15T02:22:50;12.02;;;5.43;;
27402;SDS011;14862;49.494;8.530;2023-04-15T02:25:16;11.95;;;6.00;;
27402;SDS011;14862;49.494;8.530;2023-04-15T02:27:41;16.92;;;5.45;;
27402;SDS011;14862;49.494;8.530;2023-04-15T02:30:08;10.05;;;6.13;;
27402;SDS011;14862;49.494;8.530;2023-04-15T02:32:33;10.18;;;5.57;;
27402;SDS011;14862;49.494;8.530;2023-04-15T02:35:04;9.93;;;6.45;;
27402;SDS011;14862;49.494;8.530;2023-04-15T02:37:31;10.43;;;5.78;;
27402;SDS011;14862;49.494;8.530;2023-04-15T02:39:56;15.30;;;6.03;;
27402;SDS011;14862;49.494;8.530;2023-04-15T02:42:21;10.50;;;5.47;;
27402;SDS011;14862;49.494;8.530;2023-04-15T02:44:46;11.40;;;4.95;;
27402;SDS011;14862;49.494;8.530;2023-04-15T02:47:12;8.45;;;5.25;;
27402;SDS011;14862;49.494;8.530;2023-04-15T02:49:38;12.70;;;6.13;;
27402;SDS011;14862;49.494;8.530;2023-04-15T02:52:04;10.18;;;5.10;;
27402;SDS011;14862;49.494;8.530;2023-04-15T02:54:30;7.75;;;5.43;;
27402;SDS011;14862;49.494;8.530;2023-04-15T02:56:57;10.68;;;5.60;;
27402;SDS011;14862;49.494;8.530;2023-04-15T02:59:23;8.50;;;5.10;;
27402;SDS011;14862;49.494;8.530;2023-04-15T03:01:48;13.13;;;5.85;;
27402;SDS011;14862;49.494;8.530;2023-04-15T03:04:13;11.43;;;5.85;;
27402;SDS011;14862;49.494;8.530;2023-04-15T03:06:38;10.90;;;6.03;;
27402;SDS011;14862;49.494;8.530;2023-04-15T03:09:03;12.52;;;7.40;;
27402;SDS011;14862;49.494;8.530;2023-04-15T03:11:29;10.98;;;6.78;;
27402;SDS011;14862;49.494;8.530;2023-04-15T03:13:55;12.13;;;6.55;;
27402;SDS011;14862;49.494;8.530;2023-04-15T03:16:20;11.20;;;6.33;;
27402;SDS011;14862;49.494;8.530;2023-04-15T03:18:46;10.57;;;6.25;;
27402;SDS011;14862;49.494;8.530;2023-04-15T03:21:11;11.53;;;6.03;;
27402;SDS011;14862;49.494;8.530;2023-04-15T03:23:36;10.27;;;5.90;;
27402;SDS011;14862;49.494;8.530;2023-04-15T03:26:02;9.60;;;5.90;;
27402;SDS011;14862;49.494;8.530;2023-04-15T03:28:27;11.32;;;6.38;;
27402;SDS011;14862;49.494;8.530;2023-04-15T03:30:53;14.75;;;6.53;;
27402;SDS011;14862;49.494;8.530;2023-04-15T03:33:18;11.35;;;6.30;;
27402;SDS011;14862;49.494;8.530;2023-04-15T03:35:44;12.25;;;6.65;;
27402;SDS011;14862;49.494;8.530;2023-04-15T03:38:09;10.70;;;6.10;;
27402;SDS011;14862;49.494;8.530;2023-04-15T03:40:34;11.75;;;5.72;;
27402;SDS011;14862;49.494;8.530;2023-04-15T03:43:00;9.27;;;6.10;;
27402;SDS011;14862;49.494;8.530;2023-04-15T03:45:25;8.82;;;5.38;;
27402;SDS011;14862;49.494;8.530;2023-04-15T03:47:50;9.05;;;5.50;;
27402;SDS011;14862;49.494;8.530;2023-04-15T03:50:16;10.95;;;5.97;;
27402;SDS011;14862;49.494;8.530;2023-04-15T03:52:41;9.07;;;5.90;;
27402;SDS011;14862;49.494;8.530;2023-04-15T03:55:06;8.93;;;5.63;;
27402;SDS011;14862;49.494;8.530;2023-04-15T03:57:32;11.40;;;5.40;;
27402;SDS011;14862;49.494;8.530;2023-04-15T04:00:01;7.32;;;5.55;;
27402;SDS011;14862;49.494;8.530;2023-04-15T04:02:27;12.77;;;6.25;;
27402;SDS011;14862;49.494;8.530;2023-04-15T04:04:52;11.45;;;5.45;;
27402;SDS011;14862;49.494;8.530;2023-04-15T04:07:17;10.75;;;5.57;;
27402;SDS011;14862;49.494;8.530;2023-04-15T04:09:42;8.38;;;5.53;;
27402;SDS011;14862;49.494;8.530;2023-04-15T04:12:08;8.75;;;5.38;;
27402;SDS011;14862;49.494;8.530;2023-04-15T04:14:33;11.20;;;6.15;;
27402;SDS011;14862;49.494;8.530;2023-04-15T04:16:58;10.35;;;7.05;;
27402;SDS011;14862;49.494;8.530;2023-04-15T04:19:23;10.30;;;6.45;;
27402;SDS011;14862;49.494;8.530;2023-04-15T04:21:49;11.77;;;6.00;;
27402;SDS011;14862;49.494;8.530;2023-04-15T04:24:14;11.85;;;6.53;;
27402;SDS011;14862;49.494;8.530;2023-04-15T04:26:39;13.48;;;6.88;;
27402;SDS011;14862;49.494;8.530;2023-04-15T04:29:04;9.60;;;6.22;;
27402;SDS011;14862;49.494;8.530;2023-04-15T04:31:30;12.65;;;6.43;;
27402;SDS011;14862;49.494;8.530;2023-04-15T04:33:55;10.55;;;5.97;;
27402;SDS011;14862;49.494;8.530;2023-04-15T04:36:20;7.00;;;5.57;;
27402;SDS011;14862;49.494;8.530;2023-04-15T04:38:46;12.95;;;6.00;;
27402;SDS011;14862;49.494;8.530;2023-04-15T04:41:11;7.87;;;5.27;;
27402;SDS011;14862;49.494;8.530;2023-04-15T04:43:36;11.85;;;5.85;;
27402;SDS011;14862;49.494;8.530;2023-04-15T04:46:01;6.80;;;5.23;;
27402;SDS011;14862;49.494;8.530;2023-04-15T04:48:26;6.53;;;5.38;;
27402;SDS011;14862;49.494;8.530;2023-04-15T04:50:52;9.00;;;5.18;;
27402;SDS011;14862;49.494;8.530;2023-04-15T04:53:17;8.27;;;3.90;;
27402;SDS011;14862;49.494;8.530;2023-04-15T04:55:42;10.00;;;4.97;;
27402;SDS011;14862;49.494;8.530;2023-04-15T04:58:07;7.27;;;5.07;;
27402;SDS011;14862;49.494;8.530;2023-04-15T05:00:33;9.18;;;5.40;;
27402;SDS011;14862;49.494;8.530;2023-04-15T05:02:58;12.55;;;5.35;;
27402;SDS011;14862;49.494;8.530;2023-04-15T05:05:23;14.85;;;5.20;;
27402;SDS011;14862;49.494;8.530;2023-04-15T05:07:52;9.68;;;5.20;;
27402;SDS011;14862;49.494;8.530;2023-04-15T05:10:17;8.75;;;4.95;;
27402;SDS011;14862;49.494;8.530;2023-04-15T05:12:42;8.23;;;5.88;;
27402;SDS011;14862;49.494;8.530;2023-04-15T05:15:08;7.15;;;4.63;;
27402;SDS011;14862;49.494;8.530;2023-04-15T05:17:33;9.32;;;5.55;;
27402;SDS011;14862;49.494;8.530;2023-04-15T05:19:59;10.05;;;5.57;;
27402;SDS011;14862;49.494;8.530;2023-04-15T05:22:24;13.45;;;6.50;;
27402;SDS011;14862;49.494;8.530;2023-04-15T05:24:50;14.25;;;6.32;;
27402;SDS011;14862;49.494;8.530;2023-04-15T05:27:15;10.02;;;5.57;;
27402;SDS011;14862;49.494;8.530;2023-04-15T05:29:40;8.15;;;5.35;;
27402;SDS011;14862;49.494;8.530;2023-04-15T05:32:05;10.32;;;5.55;;
27402;SDS011;14862;49.494;8.530;2023-04-15T05:34:30;7.40;;;4.57;;
27402;SDS011;14862;49.494;8.530;2023-04-15T05:36:56;8.03;;;4.57;;
27402;SDS011;14862;49.494;8.530;2023-04-15T05:39:21;7.60;;;5.07;;
27402;SDS011;14862;49.494;8.530;2023-04-15T05:41:46;8.68;;;4.80;;
27402;SDS011;14862;49.494;8.530;2023-04-15T05:44:11;6.38;;;4.20;;
27402;SDS011;14862;49.494;8.530;2023-04-15T05:46:37;7.10;;;4.95;;
27402;SDS011;14862;49.494;8.530;2023-04-15T05:49:02;7.63;;;4.32;;
27402;SDS011;14862;49.494;8.530;2023-04-15T05:51:27;12.57;;;4.80;;
27402;SDS011;14862;49.494;8.530;2023-04-15T05:53:52;8.98;;;4.30;;
27402;SDS011;14862;49.494;8.530;2023-04-15T05:56:18;11.85;;;5.50;;
27402;SDS011;14862;49.494;8.530;2023-04-15T05:58:44;9.18;;;4.82;;
27402;SDS011;14862;49.494;8.530;2023-04-15T06:01:09;9.43;;;5.20;;
27402;SDS011;14862;49.494;8.530;2023-04-15T06:03:35;11.30;;;5.63;;
27402;SDS011;14862;49.494;8.530;2023-04-15T06:06:01;13.00;;;4.85;;
27402;SDS011;14862;49.494;8.530;2023-04-15T06:08:27;13.82;;;4.68;;
27402;SDS011;14862;49.494;8.530;2023-04-15T06:10:52;9.02;;;5.13;;
27402;SDS011;14862;49.494;8.530;2023-04-15T06:13:18;11.50;;;5.65;;
27402;SDS011;14862;49.494;8.530;2023-04-15T06:15:43;7.78;;;4.57;;
27402;SDS011;14862;49.494;8.530;2023-04-15T06:18:08;8.48;;;4.68;;
27402;SDS011;14862;49.494;8.530;2023-04-15T06:20:33;5.97;;;4.50;;
27402;SDS011;14862;49.494;8.530;2023-04-15T06:22:59;13.10;;;3.88;;
27402;SDS011;14862;49.494;8.530;2023-04-15T06:25:24;8.43;;;4.40;;
27402;SDS011;14862;49.494;8.530;2023-04-15T06:27:49;6.40;;;4.73;;
27402;SDS011;14862;49.494;8.530;2023-04-15T06:30:14;6.43;;;3.80;;
27402;SDS011;14862;49.494;8.530;2023-04-15T06:32:40;9.18;;;4.13;;
27402;SDS011;14862;49.494;8.530;2023-04-15T06:35:05;8.10;;;4.22;;
27402;SDS011;14862;49.494;8.530;2023-04-15T06:37:30;7.07;;;4.00;;
27402;SDS011;14862;49.494;8.530;2023-04-15T06:39:56;8.48;;;4.82;;
27402;SDS011;14862;49.494;8.530;2023-04-15T06:42:22;9.20;;;4.78;;
27402;SDS011;14862;49.494;8.530;2023-04-15T06:44:47;13.23;;;5.43;;
27402;SDS011;14862;49.494;8.530;2023-04-15T06:47:12;7.57;;;4.65;;
27402;SDS011;14862;49.494;8.530;2023-04-15T06:49:38;8.70;;;4.72;;
27402;SDS011;14862;49.494;8.530;2023-04-15T06:52:04;8.55;;;4.50;;
27402;SDS011;14862;49.494;8.530;2023-04-15T06:54:29;6.88;;;4.30;;
27402;SDS011;14862;49.494;8.530;2023-04-15T06:56:54;10.93;;;4.40;;
27402;SDS011;14862;49.494;8.530;2023-04-15T06:59:20;6.97;;;4.60;;
27402;SDS011;14862;49.494;8.530;2023-04-15T07:01:45;9.97;;;4.97;;
27402;SDS011;14862;49.494;8.530;2023-04-15T07:04:10;8.13;;;5.03;;
27402;SDS011;14862;49.494;8.530;2023-04-15T07:06:36;9.23;;;4.68;;
27402;SDS011;14862;49.494;8.530;2023-04-15T07:09:01;7.73;;;4.73;;
27402;SDS011;14862;49.494;8.530;2023-04-15T07:11:27;6.68;;;4.88;;
27402;SDS011;14862;49.494;8.530;2023-04-15T07:13:52;9.60;;;5.75;;
27402;SDS011;14862;49.494;8.530;2023-04-15T07:16:17;7.88;;;4.88;;
27402;SDS011;14862;49.494;8.530;2023-04-15T07:18:43;8.35;;;5.00;;
27402;SDS011;14862;49.494;8.530;2023-04-15T07:21:08;7.03;;;4.90;;
27402;SDS011;14862;49.494;8.530;2023-04-15T07:23:33;10.70;;;5.45;;
27402;SDS011;14862;49.494;8.530;2023-04-15T07:25:59;10.95;;;5.28;;
27402;SDS011;14862;49.494;8.530;2023-04-15T07:28:24;7.85;;;4.47;;
27402;SDS011;14862;49.494;8.530;2023-04-15T07:30:50;11.43;;;4.87;;
27402;SDS011;14862;49.494;8.530;2023-04-15T07:33:15;7.60;;;4.30;;
27402;SDS011;14862;49.494;8.530;2023-04-15T07:35:40;6.53;;;3.95;;
27402;SDS011;14862;49.494;8.530;2023-04-15T07:38:06;11.80;;;5.15;;
27402;SDS011;14862;49.494;8.530;2023-04-15T07:40:31;7.03;;;4.65;;
27402;SDS011;14862;49.494;8.530;2023-04-15T07:42:57;10.85;;;4.72;;
27402;SDS011;14862;49.494;8.530;2023-04-15T07:45:22;9.32;;;4.20;;
27402;SDS011;14862;49.494;8.530;2023-04-15T07:47:47;10.57;;;4.70;;
27402;SDS011;14862;49.494;8.530;2023-04-15T07:50:13;11.13;;;5.50;;
27402;SDS011;14862;49.494;8.530;2023-04-15T07:52:38;7.60;;;4.80;;
27402;SDS011;14862;49.494;8.530;2023-04-15T07:55:07;7.70;;;4.78;;
27402;SDS011;14862;49.494;8.530;2023-04-15T07:57:33;6.75;;;4.72;;
27402;SDS011;14862;49.494;8.530;2023-04-15T07:59:58;7.38;;;4.88;;
27402;SDS011;14862;49.494;8.530;2023-04-15T08:02:24;8.48;;;5.20;;
27402;SDS011;14862;49.494;8.530;2023-04-15T08:04:49;10.07;;;4.97;;
27402;SDS011;14862;49.494;8.530;2023-04-15T08:07:15;7.55;;;4.88;;
27402;SDS011;14862;49.494;8.530;2023-04-15T08:09:40;7.50;;;4.33;;
27402;SDS011;14862;49.494;8.530;2023-04-15T08:12:05;8.75;;;5.10;;
27402;SDS011;14862;49.494;8.530;2023-04-15T08:14:33;9.10;;;5.20;;
27402;SDS011;14862;49.494;8.530;2023-04-15T08:16:59;10.13;;;5.55;;
27402;SDS011;14862;49.494;8.530;2023-04-15T08:19:24;8.80;;;5.37;;
27402;SDS011;14862;49.494;8.530;2023-04-15T08:21:49;6.73;;;4.60;;
27402;SDS011;14862;49.494;8.530;2023-04-15T08:24:15;7.15;;;4.55;;
27402;SDS011;14862;49.494;8.530;2023-04-15T08:26:40;6.67;;;4.03;;
27402;SDS011;14862;49.494;8.530;2023-04-15T08:29:06;9.70;;;4.65;;
27402;SDS011;14862;49.494;8.530;2023-04-15T08:31:31;10.50;;;4.63;;
27402;SDS011;14862;49.494;8.530;2023-04-15T08:33:56;8.32;;;4.47;;
27402;SDS011;14862;49.494;8.530;2023-04-15T08:36:21;5.40;;;4.13;;
27402;SDS011;14862;49.494;8.530;2023-04-15T08:38:48;9.95;;;4.10;;
27402;SDS011;14862;49.494;8.530;2023-04-15T08:41:20;6.80;;;4.07;;
27402;SDS011;14862;49.494;8.530;2023-04-15T08:46:19;5.10;;;3.75;;
27402;SDS011;14862;49.494;8.530;2023-04-15T08:48:45;3.70;;;3.05;;
27402;SDS011;14862;49.494;8.530;2023-04-15T08:51:11;6.15;;;3.38;;
27402;SDS011;14862;49.494;8.530;2023-04-15T08:53:40;6.03;;;2.70;;
27402;SDS011;14862;49.494;8.530;2023-04-15T08:56:06;6.53;;;3.38;;
27402;SDS011;14862;49.494;8.530;2023-04-15T08:58:32;4.22;;;3.00;;
27402;SDS011;14862;49.494;8.530;2023-04-15T09:00:58;4.53;;;3.03;;
27402;SDS011;14862;49.494;8.530;2023-04-15T09:03:23;3.90;;;2.40;;
27402;SDS011;14862;49.494;8.530;2023-04-15T09:05:49;4.90;;;2.20;;
27402;SDS011;14862;49.494;8.530;2023-04-15T09:08:14;3.05;;;2.30;;
27402;SDS011;14862;49.494;8.530;2023-04-15T09:10:40;6.70;;;2.35;;
27402;SDS011;14862;49.494;8.530;2023-04-15T09:13:05;3.85;;;2.35;;
27402;SDS011;14862;49.494;8.530;2023-04-15T09:15:30;3.17;;;1.90;;
27402;SDS011;14862;49.494;8.530;2023-04-15T09:17:56;3.25;;;2.15;;
27402;SDS011;14862;49.494;8.530;2023-04-15T09:20:22;4.63;;;2.80;;
27402;SDS011;14862;49.494;8.530;2023-04-15T09:22:48;5.95;;;2.70;;
27402;SDS011;14862;49.494;8.530;2023-04-15T09:27:47;4.07;;;2.63;;
27402;SDS011;14862;49.494;8.530;2023-04-15T09:30:12;5.18;;;3.20;;
27402;SDS011;14862;49.494;8.530;2023-04-15T09:32:46;4.32;;;3.22;;
27402;SDS011;14862;49.494;8.530;2023-04-15T09:35:11;5.38;;;3.15;;
27402;SDS011;14862;49.494;8.530;2023-04-15T09:37:37;5.75;;;3.17;;
27402;SDS011;14862;49.494;8.530;2023-04-15T09:40:02;6.57;;;3.77;;
27402;SDS011;14862;49.494;8.530;2023-04-15T09:42:27;5.40;;;3.28;;
27402;SDS011;14862;49.494;8.530;2023-04-15T09:44:53;7.70;;;4.65;;
27402;SDS011;14862;49.494;8.530;2023-04-15T09:47:28;6.68;;;3.40;;
27402;SDS011;14862;49.494;8.530;2023-04-15T09:49:54;5.63;;;3.28;;
27402;SDS011;14862;49.494;8.530;2023-04-15T09:52:20;5.75;;;3.83;;
27402;SDS011;14862;49.494;8.530;2023-04-15T09:54:45;4.97;;;4.03;;
27402;SDS011;14862;49.494;8.530;2023-04-15T09:57:11;5.03;;;3.33;;
27402;SDS011;14862;49.494;8.530;2023-04-15T09:59:36;6.03;;;3.73;;
27402;SDS011;14862;49.494;8.530;2023-04-15T10:02:03;5.38;;;3.70;;
27402;SDS011;14862;49.494;8.530;2023-04-15T10:04:28;6.18;;;3.70;;
27402;SDS011;14862;49.494;8.530;2023-04-15T10:06:54;5.00;;;3.78;;
27402;SDS011;14862;49.494;8.530;2023-04-15T10:09:19;6.88;;;4.25;;
27402;SDS011;14862;49.494;8.530;2023-04-15T10:11:45;6.20;;;3.72;;
27402;SDS011;14862;49.494;8.530;2023-04-15T10:14:12;6.05;;;4.60;;
27402;SDS011;14862;49.494;8.530;2023-04-15T10:16:39;9.00;;;4.00;;
27402;SDS011;14862;49.494;8.530;2023-04-15T10:19:07;7.03;;;4.10;;
27402;SDS011;14862;49.494;8.530;2023-04-15T10:21:33;7.50;;;3.88;;
27402;SDS011;14862;49.494;8.530;2023-04-15T10:23:59;6.72;;;3.80;;
27402;SDS011;14862;49.494;8.530;2023-04-15T10:26:25;6.55;;;4.35;;
27402;SDS011;14862;49.494;8.530;2023-04-15T10:28:50;5.72;;;3.92;;
27402;SDS011;14862;49.494;8.530;2023-04-15T10:31:17;5.55;;;3.22;;
27402;SDS011;14862;49.494;8.530;2023-04-15T10:33:43;5.50;;;3.65;;
27402;SDS011;14862;49.494;8.530;2023-04-15T10:36:10;5.95;;;3.20;;
27402;SDS011;14862;49.494;8.530;2023-04-15T10:38:42;8.07;;;3.10;;
27402;SDS011;14862;49.494;8.530;2023-04-15T10:43:36;4.70;;;2.90;;
27402;SDS011;14862;49.494;8.530;2023-04-15T10:46:03;6.05;;;3.33;;
27402;SDS011;14862;49.494;8.530;2023-04-15T10:48:29;4.15;;;2.80;;
27402;SDS011;14862;49.494;8.530;2023-04-15T10:50:55;7.45;;;3.10;;
27402;SDS011;14862;49.494;8.530;2023-04-15T10:53:30;5.75;;;2.97;;
27402;SDS011;14862;49.494;8.530;2023-04-15T10:55:56;4.30;;;2.22;;
27402;SDS011;14862;49.494;8.530;2023-04-15T10:58:24;5.35;;;3.30;;
27402;SDS011;14862;49.494;8.530;2023-04-15T11:00:50;4.32;;;2.30;;
27402;SDS011;14862;49.494;8.530;2023-04-15T11:03:37;4.20;;;2.88;;
27402;SDS011;14862;49.494;8.530;2023-04-15T11:06:03;4.22;;;2.22;;
27402;SDS011;14862;49.494;8.530;2023-04-15T11:08:51;5.57;;;2.50;;
27402;SDS011;14862;49.494;8.530;2023-04-15T11:11:16;4.07;;;2.47;;
27402;SDS011;14862;49.494;8.530;2023-04-15T11:13:48;2.47;;;1.90;;
27402;SDS011;14862;49.494;8.530;2023-04-15T11:16:14;3.88;;;2.05;;
27402;SDS011;14862;49.494;8.530;2023-04-15T11:18:39;3.60;;;2.30;;
27402;SDS011;14862;49.494;8.530;2023-04-15T11:21:05;3.80;;;2.20;;
27402;SDS011;14862;49.494;8.530;2023-04-15T11:23:31;6.35;;;2.25;;
27402;SDS011;14862;49.494;8.530;2023-04-15T11:25:57;3.20;;;2.25;;
27402;SDS011;14862;49.494;8.530;2023-04-15T11:28:27;5.03;;;2.47;;
27402;SDS011;14862;49.494;8.530;2023-04-15T11:30:52;6.32;;;2.33;;
27402;SDS011;14862;49.494;8.530;2023-04-15T11:33:19;6.13;;;2.30;;
27402;SDS011;14862;49.494;8.530;2023-04-15T11:35:44;5.22;;;2.35;;
27402;SDS011;14862;49.494;8.530;2023-04-15T11:38:13;4.57;;;2.00;;
27402;SDS011;14862;49.494;8.530;2023-04-15T11:40:39;6.03;;;2.83;;
27402;SDS011;14862;49.494;8.530;2023-04-15T11:43:12;3.78;;;2.22;;
27402;SDS011;14862;49.494;8.530;2023-04-15T11:46:00;4.65;;;2.35;;
27402;SDS011;14862;49.494;8.530;2023-04-15T11:48:24;5.43;;;2.72;;
27402;SDS011;14862;49.494;8.530;2023-04-15T11:50:54;3.70;;;2.28;;
27402;SDS011;14862;49.494;8.530;2023-04-15T11:53:19;3.40;;;2.00;;
27402;SDS011;14862;49.494;8.530;2023-04-15T11:55:48;5.00;;;2.63;;
27402;SDS011;14862;49.494;8.530;2023-04-15T11:58:15;5.50;;;2.55;;
27402;SDS011;14862;49.494;8.530;2023-04-15T12:00:44;3.55;;;2.00;;
27402;SDS011;14862;49.494;8.530;2023-04-15T12:03:13;3.80;;;2.25;;
27402;SDS011;14862;49.494;8.530;2023-04-15T12:08:23;3.30;;;1.90;;
27402;SDS011;14862;49.494;8.530;2023-04-15T12:10:48;3.97;;;1.70;;
27402;SDS011;14862;49.494;8.530;2023-04-15T12:13:13;4.40;;;2.47;;
27402;SDS011;14862;49.494;8.530;2023-04-15T12:15:38;4.97;;;2.17;;
27402;SDS011;14862;49.494;8.530;2023-04-15T12:18:03;4.50;;;2.25;;
27402;SDS011;14862;49.494;8.530;2023-04-15T12:20:29;4.05;;;2.22;;
27402;SDS011;14862;49.494;8.530;2023-04-15T12:23:03;2.85;;;2.30;;
27402;SDS011;14862;49.494;8.530;2023-04-15T12:25:33;5.07;;;2.30;;
27402;SDS011;14862;49.494;8.530;2023-04-15T12:27:58;5.43;;;2.45;;
27402;SDS011;14862;49.494;8.530;2023-04-15T12:30:24;3.28;;;1.90;;
27402;SDS011;14862;49.494;8.530;2023-04-15T12:32:50;4.23;;;2.03;;
27402;SDS011;14862;49.494;8.530;2023-04-15T12:35:15;4.00;;;1.80;;
27402;SDS011;14862;49.494;8.530;2023-04-15T12:37:43;4.05;;;1.73;;
27402;SDS011;14862;49.494;8.530;2023-04-15T12:40:08;5.00;;;1.70;;
27402;SDS011;14862;49.494;8.530;2023-04-15T12:42:33;4.22;;;1.80;;
27402;SDS011;14862;49.494;8.530;2023-04-15T12:44:59;4.50;;;2.30;;
27402;SDS011;14862;49.494;8.530;2023-04-15T12:47:24;3.72;;;1.50;;
27402;SDS011;14862;49.494;8.530;2023-04-15T12:49:50;2.60;;;1.00;;
27402;SDS011;14862;49.494;8.530;2023-04-15T12:52:15;2.53;;;1.00;;
27402;SDS011;14862;49.494;8.530;2023-04-15T12:54:40;1.60;;;0.95;;
27402;SDS011;14862;49.494;8.530;2023-04-15T12:57:05;2.60;;;0.90;;
27402;SDS011;14862;49.494;8.530;2023-04-15T12:59:31;1.40;;;0.75;;
27402;SDS011;14862;49.494;8.530;2023-04-15T13:01:56;3.55;;;1.00;;
27402;SDS011;14862;49.494;8.530;2023-04-15T13:04:22;1.67;;;0.85;;
27402;SDS011;14862;49.494;8.530;2023-04-15T13:06:47;4.20;;;1.00;;
27402;SDS011;14862;49.494;8.530;2023-04-15T13:09:13;2.35;;;1.35;;
27402;SDS011;14862;49.494;8.530;2023-04-15T13:11:38;3.85;;;0.70;;
27402;SDS011;14862;49.494;8.530;2023-04-15T13:14:04;2.33;;;0.65;;
27402;SDS011;14862;49.494;8.530;2023-04-15T13:16:30;0.98;;;0.60;;
27402;SDS011;14862;49.494;8.530;2023-04-15T13:18:56;1.13;;;0.82;;
27402;SDS011;14862;49.494;8.530;2023-04-15T13:21:21;2.75;;;0.70;;
27402;SDS011;14862;49.494;8.530;2023-04-15T13:23:47;1.65;;;0.75;;
27402;SDS011;14862;49.494;8.530;2023-04-15T13:26:12;1.20;;;0.90;;
27402;SDS011;14862;49.494;8.530;2023-04-15T13:28:38;3.40;;;1.17;;
27402;SDS011;14862;49.494;8.530;2023-04-15T13:31:03;0.93;;;0.80;;
27402;SDS011;14862;49.494;8.530;2023-04-15T13:33:29;2.85;;;1.20;;
27402;SDS011;14862;49.494;8.530;2023-04-15T13:35:54;4.72;;;1.50;;
27402;SDS011;14862;49.494;8.530;2023-04-15T13:38:20;2.45;;;0.98;;
27402;SDS011;14862;49.494;8.530;2023-04-15T13:40:45;1.47;;;1.00;;
27402;SDS011;14862;49.494;8.530;2023-04-15T13:43:10;2.30;;;1.10;;
27402;SDS011;14862;49.494;8.530;2023-04-15T13:45:36;1.75;;;1.10;;
27402;SDS011;14862;49.494;8.530;2023-04-15T13:48:01;2.85;;;0.90;;
27402;SDS011;14862;49.494;8.530;2023-04-15T13:50:27;5.85;;;1.98;;
27402;SDS011;14862;49.494;8.530;2023-04-15T13:52:52;1.70;;;1.00;;
27402;SDS011;14862;49.494;8.530;2023-04-15T13:55:17;1.13;;;1.03;;
27402;SDS011;14862;49.494;8.530;2023-04-15T13:57:43;2.28;;;1.02;;
27402;SDS011;14862;49.494;8.530;2023-04-15T14:00:09;1.05;;;0.75;;
27402;SDS011;14862;49.494;8.530;2023-04-15T14:02:34;2.30;;;1.20;;
27402;SDS011;14862;49.494;8.530;2023-04-15T14:04:59;3.45;;;1.02;;
27402;SDS011;14862;49.494;8.530;2023-04-15T14:07:25;2.33;;;1.20;;
27402;SDS011;14862;49.494;8.530;2023-04-15T14:09:50;2.75;;;1.27;;
27402;SDS011;14862;49.494;8.530;2023-04-15T14:12:15;2.13;;;1.87;;
27402;SDS011;14862;49.494;8.530;2023-04-15T14:14:40;2.33;;;1.57;;
27402;SDS011;14862;49.494;8.530;2023-04-15T14:17:06;3.00;;;2.08;;
27402;SDS011;14862;49.494;8.530;2023-04-15T14:19:31;5.63;;;2.35;;
27402;SDS011;14862;49.494;8.530;2023-04-15T14:21:56;2.20;;;1.90;;
27402;SDS011;14862;49.494;8.530;2023-04-15T14:24:22;3.20;;;1.92;;
27402;SDS011;14862;49.494;8.530;2023-04-15T14:26:47;5.95;;;2.28;;
27402;SDS011;14862;49.494;8.530;2023-04-15T14:29:12;3.10;;;2.30;;
27402;SDS011;14862;49.494;8.530;2023-04-15T14:31:37;2.40;;;1.95;;
27402;SDS011;14862;49.494;8.530;2023-04-15T14:34:03;4.38;;;2.40;;
27402;SDS011;14862;49.494;8.530;2023-04-15T14:36:28;3.00;;;1.90;;
27402;SDS011;14862;49.494;8.530;2023-04-15T14:38:53;2.15;;;1.60;;
27402;SDS011;14862;49.494;8.530;2023-04-15T14:41:19;3.17;;;1.80;;
27402;SDS011;14862;49.494;8.530;2023-04-15T14:43:44;4.05;;;1.80;;
27402;SDS011;14862;49.494;8.530;2023-04-15T14:46:09;2.47;;;1.63;;